KCVO - Corvallis Muni A, Oregon
Updated: Fri, 05-Jun-2020 11:56pm PDT
Overcast
Overcast
 Wind from calm
Wind: Calm
Temperature: 50°F , 10°C
Dew Point: 46°F , 8°C
Humidity: 88%
Barometer: 29.87 inHg , 1011.5 hPa
Clouds: Overcast
Visibility: 10 miles , 16 km
Cloud details: Overcast 9000 ft
2020/06/06 06:56 KCVO 060656Z AUTO 00000KT 10SM OVC090 10/08 A2987 RMK AO2 SLP114 T01000083